Prestwick, United Kingdom
Current Conditions -  °F | °C
As of 4:50 AM on Saturday 20 Dec 2014 (Local Time) from EGPK Reporting Station
Scattered Clouds Scattered Clouds  
Wind Chill: 36°   Ceiling: Unl
Heat Index: 45°   Visibility: 6mi
Dew Point: 37°   Wind: 24mph
Humidity: 76%   Direction: 300°WNW
Pressure: 29.97"   Gusts: NA
Location:  55.48°N, 4.62°W
Report Text: EGPK 200450Z 30021KT 9999 SCT032 07/03 Q1015
Loading
Personal Weather Stations






























Interactive Weather Map New forecast layout! Learn more

10-Day Weather Forecast

Advertisements
Track Severe Weather on mobile